sensor_id;sensor_type;location;lat;lon;timestamp;pressure;altitude;pressure_sealevel;temperature;humidity
23643;BME280;11998;55.788;37.572;2023-01-30T00:00:04;98190.88;;;-1.29;100.00
23643;BME280;11998;55.788;37.572;2023-01-30T00:01:10;98180.47;;;-1.32;100.00
23643;BME280;11998;55.788;37.572;2023-01-30T00:02:12;98180.47;;;-1.26;100.00
23643;BME280;11998;55.788;37.572;2023-01-30T00:03:12;98173.59;;;-1.18;100.00
23643;BME280;11998;55.788;37.572;2023-01-30T00:04:13;98180.53;;;-1.14;100.00
23643;BME280;11998;55.788;37.572;2023-01-30T00:05:13;98171.88;;;-1.16;100.00
23643;BME280;11998;55.788;37.572;2023-01-30T00:06:14;98174.47;;;-1.16;100.00
23643;BME280;11998;55.788;37.572;2023-01-30T00:07:15;98171.88;;;-1.16;100.00
23643;BME280;11998;55.788;37.572;2023-01-30T00:08:16;98171.88;;;-1.22;100.00
23643;BME280;11998;55.788;37.572;2023-01-30T00:09:17;98173.59;;;-1.21;100.00
23643;BME280;11998;55.788;37.572;2023-01-30T00:10:18;98184.84;;;-1.21;100.00
23643;BME280;11998;55.788;37.572;2023-01-30T00:11:19;98177.06;;;-1.17;100.00
23643;BME280;11998;55.788;37.572;2023-01-30T00:12:20;98171.88;;;-1.13;100.00
23643;BME280;11998;55.788;37.572;2023-01-30T00:13:20;98171.88;;;-1.13;100.00
23643;BME280;11998;55.788;37.572;2023-01-30T00:14:21;98166.69;;;-1.13;100.00
23643;BME280;11998;55.788;37.572;2023-01-30T00:15:22;98156.28;;;-1.19;100.00
23643;BME280;11998;55.788;37.572;2023-01-30T00:16:22;98154.56;;;-1.14;100.00
23643;BME280;11998;55.788;37.572;2023-01-30T00:17:23;98167.50;;;-1.25;100.00
23643;BME280;11998;55.788;37.572;2023-01-30T00:18:23;98170.13;;;-1.17;100.00
23643;BME280;11998;55.788;37.572;2023-01-30T00:19:24;98163.25;;;-1.10;100.00
23643;BME280;11998;55.788;37.572;2023-01-30T00:20:25;98170.13;;;-1.17;100.00
23643;BME280;11998;55.788;37.572;2023-01-30T00:21:26;98158.91;;;-1.05;100.00
23643;BME280;11998;55.788;37.572;2023-01-30T00:22:26;98167.53;;;-1.15;100.00
23643;BME280;11998;55.788;37.572;2023-01-30T00:23:27;98160.63;;;-1.16;100.00
23643;BME280;11998;55.788;37.572;2023-01-30T00:24:28;98157.16;;;-1.17;100.00
23643;BME280;11998;55.788;37.572;2023-01-30T00:25:28;98145.91;;;-1.19;100.00
23643;BME280;11998;55.788;37.572;2023-01-30T00:26:30;98145.03;;;-1.18;100.00
23643;BME280;11998;55.788;37.572;2023-01-30T00:27:31;98148.50;;;-1.21;100.00
23643;BME280;11998;55.788;37.572;2023-01-30T00:28:32;98140.69;;;-1.21;100.00
23643;BME280;11998;55.788;37.572;2023-01-30T00:29:32;98138.09;;;-1.16;100.00
23643;BME280;11998;55.788;37.572;2023-01-30T00:30:33;98138.09;;;-1.13;100.00
23643;BME280;11998;55.788;37.572;2023-01-30T00:31:33;98140.69;;;-1.16;100.00
23643;BME280;11998;55.788;37.572;2023-01-30T00:32:34;98133.69;;;-1.38;100.00
23643;BME280;11998;55.788;37.572;2023-01-30T00:33:36;98142.34;;;-1.38;100.00
23643;BME280;11998;55.788;37.572;2023-01-30T00:34:37;98141.44;;;-1.57;100.00
23643;BME280;11998;55.788;37.572;2023-01-30T00:35:42;98139.69;;;-1.61;100.00
23643;BME280;11998;55.788;37.572;2023-01-30T00:36:43;98144.91;;;-1.53;100.00
23643;BME280;11998;55.788;37.572;2023-01-30T00:37:43;98150.97;;;-1.51;100.00
23643;BME280;11998;55.788;37.572;2023-01-30T00:38:44;98131.00;;;-1.66;100.00
23643;BME280;11998;55.788;37.572;2023-01-30T00:39:45;98133.63;;;-1.57;100.00
23643;BME280;11998;55.788;37.572;2023-01-30T00:40:46;98126.69;;;-1.64;100.00
23643;BME280;11998;55.788;37.572;2023-01-30T00:41:47;98133.59;;;-1.66;100.00
23643;BME280;11998;55.788;37.572;2023-01-30T00:43:08;98130.19;;;-1.50;100.00
23643;BME280;11998;55.788;37.572;2023-01-30T00:44:28;98131.97;;;-1.47;100.00
23643;BME280;11998;55.788;37.572;2023-01-30T00:45:48;98123.31;;;-1.46;100.00
23643;BME280;11998;55.788;37.572;2023-01-30T00:47:08;98131.09;;;-1.48;100.00
23643;BME280;11998;55.788;37.572;2023-01-30T00:48:09;98131.09;;;-1.48;100.00
23643;BME280;11998;55.788;37.572;2023-01-30T00:49:10;98129.38;;;-1.44;100.00
23643;BME280;11998;55.788;37.572;2023-01-30T00:50:10;98125.84;;;-1.52;100.00
23643;BME280;11998;55.788;37.572;2023-01-30T00:51:11;98130.19;;;-1.51;100.00
23643;BME280;11998;55.788;37.572;2023-01-30T00:52:11;98128.50;;;-1.38;100.00
23643;BME280;11998;55.788;37.572;2023-01-30T00:53:13;98136.28;;;-1.41;100.00
23643;BME280;11998;55.788;37.572;2023-01-30T00:54:15;98130.19;;;-1.56;100.00
23643;BME280;11998;55.788;37.572;2023-01-30T00:55:16;98125.00;;;-1.53;100.00
23643;BME280;11998;55.788;37.572;2023-01-30T00:56:16;98130.22;;;-1.46;100.00
23643;BME280;11998;55.788;37.572;2023-01-30T00:57:17;98131.97;;;-1.42;100.00
23643;BME280;11998;55.788;37.572;2023-01-30T00:58:18;98126.75;;;-1.49;100.00
23643;BME280;11998;55.788;37.572;2023-01-30T00:59:19;98130.22;;;-1.46;100.00
23643;BME280;11998;55.788;37.572;2023-01-30T01:00:20;98126.75;;;-1.42;100.00
23643;BME280;11998;55.788;37.572;2023-01-30T01:01:22;98119.84;;;-1.40;100.00
23643;BME280;11998;55.788;37.572;2023-01-30T01:02:23;98118.16;;;-1.32;100.00
23643;BME280;11998;55.788;37.572;2023-01-30T01:03:23;98114.69;;;-1.31;100.00
23643;BME280;11998;55.788;37.572;2023-01-30T01:04:24;98121.63;;;-1.29;100.00
23643;BME280;11998;55.788;37.572;2023-01-30T01:05:25;98123.34;;;-1.32;100.00
23643;BME280;11998;55.788;37.572;2023-01-30T01:06:26;98108.59;;;-1.42;100.00
23643;BME280;11998;55.788;37.572;2023-01-30T01:07:27;98112.06;;;-1.40;100.00
23643;BME280;11998;55.788;37.572;2023-01-30T01:08:27;98119.84;;;-1.37;100.00
23643;BME280;11998;55.788;37.572;2023-01-30T01:09:29;98112.09;;;-1.30;100.00
23643;BME280;11998;55.788;37.572;2023-01-30T01:10:30;98109.47;;;-1.40;100.00
23643;BME280;11998;55.788;37.572;2023-01-30T01:11:31;98101.72;;;-1.33;100.00
23643;BME280;11998;55.788;37.572;2023-01-30T01:12:31;98107.72;;;-1.38;100.00
23643;BME280;11998;55.788;37.572;2023-01-30T01:13:32;98102.56;;;-1.32;100.00
23643;BME280;11998;55.788;37.572;2023-01-30T01:14:33;98112.00;;;-1.51;100.00
23643;BME280;11998;55.788;37.572;2023-01-30T01:15:33;98112.00;;;-1.50;100.00
23643;BME280;11998;55.788;37.572;2023-01-30T01:16:34;98104.22;;;-1.53;100.00
23643;BME280;11998;55.788;37.572;2023-01-30T01:17:35;98096.47;;;-1.46;100.00
23643;BME280;11998;55.788;37.572;2023-01-30T01:18:36;98104.25;;;-1.43;100.00
23643;BME280;11998;55.788;37.572;2023-01-30T01:19:36;98096.47;;;-1.46;100.00
23643;BME280;11998;55.788;37.572;2023-01-30T01:20:37;98101.66;;;-1.37;100.00
23643;BME280;11998;55.788;37.572;2023-01-30T01:21:38;98107.72;;;-1.40;100.00
23643;BME280;11998;55.788;37.572;2023-01-30T01:22:38;98106.03;;;-1.36;100.00
23643;BME280;11998;55.788;37.572;2023-01-30T01:23:39;98099.06;;;-1.40;100.00
23643;BME280;11998;55.788;37.572;2023-01-30T01:24:39;98100.81;;;-1.39;100.00
23643;BME280;11998;55.788;37.572;2023-01-30T01:25:40;98111.19;;;-1.42;100.00
23643;BME280;11998;55.788;37.572;2023-01-30T01:26:41;98097.34;;;-1.38;100.00
23643;BME280;11998;55.788;37.572;2023-01-30T01:27:42;98105.97;;;-1.52;100.00
23643;BME280;11998;55.788;37.572;2023-01-30T01:28:42;98101.63;;;-1.50;100.00
23643;BME280;11998;55.788;37.572;2023-01-30T01:29:43;98102.53;;;-1.44;100.00
23643;BME280;11998;55.788;37.572;2023-01-30T01:30:44;98097.34;;;-1.44;100.00
23643;BME280;11998;55.788;37.572;2023-01-30T01:31:44;98100.81;;;-1.42;100.00
23643;BME280;11998;55.788;37.572;2023-01-30T01:32:45;98102.53;;;-1.37;100.00
23643;BME280;11998;55.788;37.572;2023-01-30T01:33:46;98099.06;;;-1.40;100.00
23643;BME280;11998;55.788;37.572;2023-01-30T01:34:47;98086.97;;;-1.46;100.00
23643;BME280;11998;55.788;37.572;2023-01-30T01:35:47;98099.06;;;-1.40;100.00
23643;BME280;11998;55.788;37.572;2023-01-30T01:36:48;98088.69;;;-1.40;100.00
23643;BME280;11998;55.788;37.572;2023-01-30T01:37:52;98081.75;;;-1.40;100.00
23643;BME280;11998;55.788;37.572;2023-01-30T01:38:53;98082.63;;;-1.41;100.00
23643;BME280;11998;55.788;37.572;2023-01-30T01:39:54;98072.25;;;-1.49;100.00
23643;BME280;11998;55.788;37.572;2023-01-30T01:41:16;98068.75;;;-1.52;100.00
23643;BME280;11998;55.788;37.572;2023-01-30T01:42:17;98062.69;;;-1.56;100.00
23643;BME280;11998;55.788;37.572;2023-01-30T01:43:20;98067.00;;;-1.55;100.00
23643;BME280;11998;55.788;37.572;2023-01-30T01:44:23;98062.66;;;-1.68;100.00
23643;BME280;11998;55.788;37.572;2023-01-30T01:45:24;98055.78;;;-1.55;100.00
23643;BME280;11998;55.788;37.572;2023-01-30T01:46:29;98047.13;;;-1.53;100.00
23643;BME280;11998;55.788;37.572;2023-01-30T01:47:32;98054.91;;;-1.50;100.00
23643;BME280;11998;55.788;37.572;2023-01-30T01:48:40;98060.09;;;-1.50;100.00
23643;BME280;11998;55.788;37.572;2023-01-30T01:49:43;98047.13;;;-1.50;100.00
23643;BME280;11998;55.788;37.572;2023-01-30T01:50:57;98047.13;;;-1.53;100.00
23643;BME280;11998;55.788;37.572;2023-01-30T01:52:10;98052.31;;;-1.57;100.00
23643;BME280;11998;55.788;37.572;2023-01-30T01:53:14;98041.84;;;-1.80;100.00
23643;BME280;11998;55.788;37.572;2023-01-30T01:55:33;98040.16;;;-1.66;100.00
23643;BME280;11998;55.788;37.572;2023-01-30T01:56:37;98046.22;;;-1.68;100.00
23643;BME280;11998;55.788;37.572;2023-01-30T01:57:49;98035.84;;;-1.67;100.00
23643;BME280;11998;55.788;37.572;2023-01-30T01:58:54;98036.69;;;-1.65;100.00
23643;BME280;11998;55.788;37.572;2023-01-30T02:00:06;98034.06;;;-1.75;100.00
23643;BME280;11998;55.788;37.572;2023-01-30T02:01:10;98028.91;;;-1.71;100.00
23643;BME280;11998;55.788;37.572;2023-01-30T02:02:12;98028.03;;;-1.67;100.00
23643;BME280;11998;55.788;37.572;2023-01-30T02:03:16;98023.72;;;-1.65;100.00
23643;BME280;11998;55.788;37.572;2023-01-30T02:04:19;98030.66;;;-1.64;100.00
23643;BME280;11998;55.788;37.572;2023-01-30T02:05:43;98032.34;;;-1.77;100.00
23643;BME280;11998;55.788;37.572;2023-01-30T02:06:46;98032.34;;;-1.75;100.00
23643;BME280;11998;55.788;37.572;2023-01-30T02:07:51;98028.88;;;-1.83;100.00
23643;BME280;11998;55.788;37.572;2023-01-30T02:09:03;98030.59;;;-1.82;100.00
23643;BME280;11998;55.788;37.572;2023-01-30T02:10:07;98022.81;;;-1.79;100.00
23643;BME280;11998;55.788;37.572;2023-01-30T02:11:18;98025.44;;;-1.70;100.00
23643;BME280;11998;55.788;37.572;2023-01-30T02:12:21;98040.16;;;-1.67;100.00
23643;BME280;11998;55.788;37.572;2023-01-30T02:13:22;98028.91;;;-1.65;100.00
23643;BME280;11998;55.788;37.572;2023-01-30T02:14:22;98034.97;;;-1.63;100.00
23643;BME280;11998;55.788;37.572;2023-01-30T02:15:24;98021.16;;;-1.59;100.00
23643;BME280;11998;55.788;37.572;2023-01-30T02:16:24;98024.63;;;-1.60;100.00
23643;BME280;11998;55.788;37.572;2023-01-30T02:17:25;98016.81;;;-1.70;100.00
23643;BME280;11998;55.788;37.572;2023-01-30T02:18:27;98017.69;;;-1.58;100.00
23643;BME280;11998;55.788;37.572;2023-01-30T02:26:36;98014.22;;;-1.63;100.00
23643;BME280;11998;55.788;37.572;2023-01-30T02:36:37;97995.09;;;-1.92;100.00
23643;BME280;11998;55.788;37.572;2023-01-30T02:39:25;97983.03;;;-1.78;100.00
23643;BME280;11998;55.788;37.572;2023-01-30T02:43:11;97990.84;;;-1.70;100.00
23643;BME280;11998;55.788;37.572;2023-01-30T02:44:17;97993.44;;;-1.72;100.00
23643;BME280;11998;55.788;37.572;2023-01-30T02:46:55;97976.13;;;-1.82;100.00
23643;BME280;11998;55.788;37.572;2023-01-30T02:48:02;97972.66;;;-1.84;100.00
23643;BME280;11998;55.788;37.572;2023-01-30T02:50:29;97981.34;;;-1.73;100.00
23643;BME280;11998;55.788;37.572;2023-01-30T02:51:33;97978.75;;;-1.70;100.00
23643;BME280;11998;55.788;37.572;2023-01-30T02:52:35;97977.00;;;-1.71;100.00
23643;BME280;11998;55.788;37.572;2023-01-30T02:53:37;97979.59;;;-1.63;100.00
23643;BME280;11998;55.788;37.572;2023-01-30T02:54:38;97974.44;;;-1.59;100.00
23643;BME280;11998;55.788;37.572;2023-01-30T02:55:40;97977.88;;;-1.51;100.00
23643;BME280;11998;55.788;37.572;2023-01-30T02:56:47;97970.97;;;-1.61;100.00
23643;BME280;11998;55.788;37.572;2023-01-30T02:57:49;97980.47;;;-1.69;100.00
23643;BME280;11998;55.788;37.572;2023-01-30T02:59:02;97982.19;;;-1.68;100.00
23643;BME280;11998;55.788;37.572;2023-01-30T03:00:05;97978.75;;;-1.71;100.00
23643;BME280;11998;55.788;37.572;2023-01-30T03:01:35;97973.53;;;-1.81;100.00
23643;BME280;11998;55.788;37.572;2023-01-30T03:04:25;97961.41;;;-1.80;100.00
23643;BME280;11998;55.788;37.572;2023-01-30T03:09:33;97935.47;;;-1.65;100.00
23643;BME280;11998;55.788;37.572;2023-01-30T03:10:46;97927.69;;;-1.80;100.00
23643;BME280;11998;55.788;37.572;2023-01-30T03:13:10;97929.41;;;-1.82;100.00
23643;BME280;11998;55.788;37.572;2023-01-30T03:14:26;97928.56;;;-1.72;100.00
23643;BME280;11998;55.788;37.572;2023-01-30T03:15:37;97927.69;;;-1.83;100.00
23643;BME280;11998;55.788;37.572;2023-01-30T03:16:40;97935.47;;;-1.85;100.00
23643;BME280;11998;55.788;37.572;2023-01-30T03:17:43;97924.22;;;-1.76;100.00
23643;BME280;11998;55.788;37.572;2023-01-30T03:18:45;97929.44;;;-1.70;100.00
23643;BME280;11998;55.788;37.572;2023-01-30T03:19:47;97919.91;;;-1.63;100.00
23643;BME280;11998;55.788;37.572;2023-01-30T03:20:48;97919.06;;;-1.68;100.00
23643;BME280;11998;55.788;37.572;2023-01-30T03:21:49;97919.91;;;-1.71;100.00
23643;BME280;11998;55.788;37.572;2023-01-30T03:22:50;97925.94;;;-1.78;100.00
23643;BME280;11998;55.788;37.572;2023-01-30T03:23:50;97922.47;;;-1.74;100.00
23643;BME280;11998;55.788;37.572;2023-01-30T03:24:52;97919.03;;;-1.76;100.00
23643;BME280;11998;55.788;37.572;2023-01-30T03:25:53;97913.84;;;-1.85;100.00
23643;BME280;11998;55.788;37.572;2023-01-30T03:27:04;97924.19;;;-1.88;100.00
23643;BME280;11998;55.788;37.572;2023-01-30T03:28:05;97919.00;;;-1.91;100.00
23643;BME280;11998;55.788;37.572;2023-01-30T03:29:07;97914.69;;;-1.94;100.00
23643;BME280;11998;55.788;37.572;2023-01-30T03:30:08;97918.97;;;-2.00;100.00
23643;BME280;11998;55.788;37.572;2023-01-30T03:31:09;97912.09;;;-1.89;100.00
23643;BME280;11998;55.788;37.572;2023-01-30T03:32:10;97908.63;;;-1.97;100.00
23643;BME280;11998;55.788;37.572;2023-01-30T03:33:10;97906.91;;;-1.98;100.00
23643;BME280;11998;55.788;37.572;2023-01-30T03:34:11;97914.69;;;-1.98;100.00
23643;BME280;11998;55.788;37.572;2023-01-30T03:35:12;97908.63;;;-1.97;100.00
23643;BME280;11998;55.788;37.572;2023-01-30T03:36:13;97906.91;;;-1.98;100.00
23643;BME280;11998;55.788;37.572;2023-01-30T03:37:13;97912.97;;;-1.95;100.00
23643;BME280;11998;55.788;37.572;2023-01-30T03:38:14;97911.22;;;-1.91;100.00
23643;BME280;11998;55.788;37.572;2023-01-30T03:39:15;97895.66;;;-1.93;100.00
23643;BME280;11998;55.788;37.572;2023-01-30T03:40:16;97900.84;;;-1.87;100.00
23643;BME280;11998;55.788;37.572;2023-01-30T03:41:17;97900.88;;;-1.76;100.00
23643;BME280;11998;55.788;37.572;2023-01-30T03:42:17;97897.41;;;-1.80;100.00
23643;BME280;11998;55.788;37.572;2023-01-30T03:43:18;97893.09;;;-1.73;100.00
23643;BME280;11998;55.788;37.572;2023-01-30T03:44:19;97900.88;;;-1.85;100.00
23643;BME280;11998;55.788;37.572;2023-01-30T03:45:19;97890.47;;;-1.87;100.00
23643;BME280;11998;55.788;37.572;2023-01-30T03:46:20;97887.06;;;-1.72;100.00
23643;BME280;11998;55.788;37.572;2023-01-30T03:47:20;97884.44;;;-1.66;100.00
23643;BME280;11998;55.788;37.572;2023-01-30T03:48:21;97893.09;;;-1.73;100.00
23643;BME280;11998;55.788;37.572;2023-01-30T03:49:21;97880.97;;;-1.83;100.00
23643;BME280;11998;55.788;37.572;2023-01-30T03:50:22;97889.63;;;-1.78;100.00
23643;BME280;11998;55.788;37.572;2023-01-30T03:51:23;97885.31;;;-1.68;100.00
23643;BME280;11998;55.788;37.572;2023-01-30T03:52:23;97883.59;;;-1.68;100.00
23643;BME280;11998;55.788;37.572;2023-01-30T03:53:24;97885.34;;;-1.61;100.00
23643;BME280;11998;55.788;37.572;2023-01-30T03:54:24;97892.22;;;-1.77;100.00
23643;BME280;11998;55.788;37.572;2023-01-30T03:55:25;97878.41;;;-1.72;100.00
23643;BME280;11998;55.788;37.572;2023-01-30T03:56:25;97875.78;;;-1.79;100.00
23643;BME280;11998;55.788;37.572;2023-01-30T03:57:26;97874.91;;;-1.78;100.00
23643;BME280;11998;55.788;37.572;2023-01-30T03:58:27;97872.31;;;-1.74;100.00
23643;BME280;11998;55.788;37.572;2023-01-30T03:59:27;97870.59;;;-1.80;100.00
23643;BME280;11998;55.788;37.572;2023-01-30T04:00:28;97872.31;;;-1.76;100.00
23643;BME280;11998;55.788;37.572;2023-01-30T04:01:28;97861.09;;;-1.72;100.00
23643;BME280;11998;55.788;37.572;2023-01-30T04:02:29;97862.81;;;-1.85;100.00
23643;BME280;11998;55.788;37.572;2023-01-30T04:03:32;97861.97;;;-1.82;100.00
23643;BME280;11998;55.788;37.572;2023-01-30T04:04:32;97858.47;;;-1.87;100.00
23643;BME280;11998;55.788;37.572;2023-01-30T04:05:33;97856.78;;;-1.82;100.00
23643;BME280;11998;55.788;37.572;2023-01-30T04:06:34;97855.91;;;-1.80;100.00
23643;BME280;11998;55.788;37.572;2023-01-30T04:07:34;97856.78;;;-1.85;100.00
23643;BME280;11998;55.788;37.572;2023-01-30T04:08:35;97841.19;;;-1.76;100.00
23643;BME280;11998;55.788;37.572;2023-01-30T04:09:35;97836.00;;;-1.70;100.00
23643;BME280;11998;55.788;37.572;2023-01-30T04:10:36;97843.78;;;-1.67;100.00
23643;BME280;11998;55.788;37.572;2023-01-30T04:11:37;97849.84;;;-1.77;100.00
23643;BME280;11998;55.788;37.572;2023-01-30T04:12:37;97839.47;;;-1.77;100.00
23643;BME280;11998;55.788;37.572;2023-01-30T04:13:38;97852.44;;;-1.82;100.00
23643;BME280;11998;55.788;37.572;2023-01-30T04:14:39;97834.28;;;-1.72;100.00
23643;BME280;11998;55.788;37.572;2023-01-30T04:15:39;97846.38;;;-1.76;100.00
23643;BME280;11998;55.788;37.572;2023-01-30T04:16:40;97837.75;;;-1.69;100.00
23643;BME280;11998;55.788;37.572;2023-01-30T04:17:42;97839.47;;;-1.77;100.00
23643;BME280;11998;55.788;37.572;2023-01-30T04:18:43;97832.53;;;-1.66;100.00
23643;BME280;11998;55.788;37.572;2023-01-30T04:19:44;97832.56;;;-1.69;100.00
23643;BME280;11998;55.788;37.572;2023-01-30T04:20:44;97836.00;;;-1.79;100.00
23643;BME280;11998;55.788;37.572;2023-01-30T04:21:45;97833.44;;;-1.71;100.00
23643;BME280;11998;55.788;37.572;2023-01-30T04:22:46;97819.59;;;-1.70;100.00
23643;BME280;11998;55.788;37.572;2023-01-30T04:23:46;97830.81;;;-1.67;100.00
23643;BME280;11998;55.788;37.572;2023-01-30T04:24:47;97830.81;;;-1.65;100.00
23643;BME280;11998;55.788;37.572;2023-01-30T04:25:47;97821.31;;;-1.68;100.00
23643;BME280;11998;55.788;37.572;2023-01-30T04:26:48;97814.41;;;-1.84;100.00
23643;BME280;11998;55.788;37.572;2023-01-30T04:27:49;97829.94;;;-1.90;100.00
23643;BME280;11998;55.788;37.572;2023-01-30T04:28:49;97825.63;;;-1.88;100.00
23643;BME280;11998;55.788;37.572;2023-01-30T04:29:50;97815.25;;;-1.84;100.00
23643;BME280;11998;55.788;37.572;2023-01-30T04:30:53;97811.81;;;-1.83;100.00
23643;BME280;11998;55.788;37.572;2023-01-30T04:31:54;97819.59;;;-1.84;100.00
23643;BME280;11998;55.788;37.572;2023-01-30T04:32:54;97804.88;;;-1.85;100.00
23643;BME280;11998;55.788;37.572;2023-01-30T04:33:55;97813.50;;;-1.89;100.00
23643;BME280;11998;55.788;37.572;2023-01-30T04:34:55;97822.16;;;-1.93;100.00
23643;BME280;11998;55.788;37.572;2023-01-30T04:35:58;97820.44;;;-1.94;100.00
23643;BME280;11998;55.788;37.572;2023-01-30T04:36:59;97817.84;;;-1.88;100.00
23643;BME280;11998;55.788;37.572;2023-01-30T04:37:59;97827.34;;;-1.90;100.00
23643;BME280;11998;55.788;37.572;2023-01-30T04:39:00;97817.84;;;-1.96;100.00
23643;BME280;11998;55.788;37.572;2023-01-30T04:40:00;97808.31;;;-2.01;100.00
23643;BME280;11998;55.788;37.572;2023-01-30T04:41:02;97812.66;;;-1.91;100.00
23643;BME280;11998;55.788;37.572;2023-01-30T04:42:03;97810.06;;;-1.94;100.00
23643;BME280;11998;55.788;37.572;2023-01-30T04:43:03;97815.25;;;-1.97;100.00
23643;BME280;11998;55.788;37.572;2023-01-30T04:44:04;97816.09;;;-2.04;100.00
23643;BME280;11998;55.788;37.572;2023-01-30T04:45:05;97797.09;;;-1.94;100.00
23643;BME280;11998;55.788;37.572;2023-01-30T04:46:06;97796.22;;;-1.87;100.00
23643;BME280;11998;55.788;37.572;2023-01-30T04:47:06;97803.16;;;-1.80;100.00
23643;BME280;11998;55.788;37.572;2023-01-30T04:48:07;97797.09;;;-1.78;100.00
23643;BME280;11998;55.788;37.572;2023-01-30T04:49:10;97786.72;;;-1.73;100.00
23643;BME280;11998;55.788;37.572;2023-01-30T04:50:11;97791.91;;;-1.71;100.00
23643;BME280;11998;55.788;37.572;2023-01-30T04:51:11;97793.63;;;-1.80;100.00
23643;BME280;11998;55.788;37.572;2023-01-30T04:52:12;97785.84;;;-1.69;100.00
23643;BME280;11998;55.788;37.572;2023-01-30T04:53:13;97784.97;;;-1.79;100.00
23643;BME280;11998;55.788;37.572;2023-01-30T04:54:14;97790.16;;;-1.74;100.00
23643;BME280;11998;55.788;37.572;2023-01-30T04:55:15;97783.22;;;-1.64;100.00
23643;BME280;11998;55.788;37.572;2023-01-30T04:56:15;97781.53;;;-1.70;100.00
23643;BME280;11998;55.788;37.572;2023-01-30T04:57:16;97791.00;;;-1.75;100.00
23643;BME280;11998;55.788;37.572;2023-01-30T04:58:17;97785.81;;;-1.57;100.00
23643;BME280;11998;55.788;37.572;2023-01-30T04:59:20;97771.09;;;-1.52;100.00
23643;BME280;11998;55.788;37.572;2023-01-30T05:00:24;97784.13;;;-1.70;100.00
23643;BME280;11998;55.788;37.572;2023-01-30T05:01:30;97770.25;;;-1.61;100.00
23643;BME280;11998;55.788;37.572;2023-01-30T05:02:30;97775.44;;;-1.66;100.00
23643;BME280;11998;55.788;37.572;2023-01-30T05:03:31;97775.44;;;-1.66;100.00
23643;BME280;11998;55.788;37.572;2023-01-30T05:04:31;97784.97;;;-1.69;100.00
23643;BME280;11998;55.788;37.572;2023-01-30T05:05:32;97773.72;;;-1.70;100.00
23643;BME280;11998;55.788;37.572;2023-01-30T05:06:34;97772.00;;;-1.77;100.00
23643;BME280;11998;55.788;37.572;2023-01-30T05:07:35;97778.06;;;-1.77;100.00
23643;BME280;11998;55.788;37.572;2023-01-30T05:08:36;97763.34;;;-1.79;100.00
23643;BME280;11998;55.788;37.572;2023-01-30T05:09:36;97777.19;;;-1.89;100.00
23643;BME280;11998;55.788;37.572;2023-01-30T05:10:37;97780.66;;;-1.87;100.00
23643;BME280;11998;55.788;37.572;2023-01-30T05:11:38;97763.38;;;-1.85;100.00
23643;BME280;11998;55.788;37.572;2023-01-30T05:12:39;97768.53;;;-1.79;100.00
23643;BME280;11998;55.788;37.572;2023-01-30T05:13:40;97757.31;;;-1.80;100.00
23643;BME280;11998;55.788;37.572;2023-01-30T05:14:42;97768.56;;;-1.82;100.00
23643;BME280;11998;55.788;37.572;2023-01-30T05:15:44;97760.75;;;-1.79;100.00
23643;BME280;11998;55.788;37.572;2023-01-30T05:16:44;97742.59;;;-1.73;100.00
23643;BME280;11998;55.788;37.572;2023-01-30T05:17:45;97740.00;;;-1.76;100.00
23643;BME280;11998;55.788;37.572;2023-01-30T05:18:46;97759.03;;;-1.83;100.00
23643;BME280;11998;55.788;37.572;2023-01-30T05:19:46;97745.19;;;-1.88;100.00
23643;BME280;11998;55.788;37.572;2023-01-30T05:20:47;97761.66;;;-1.95;100.00
23643;BME280;11998;55.788;37.572;2023-01-30T05:21:48;97749.53;;;-1.99;100.00
23643;BME280;11998;55.788;37.572;2023-01-30T05:22:48;97747.81;;;-1.97;100.00
23643;BME280;11998;55.788;37.572;2023-01-30T05:23:50;97744.34;;;-2.02;100.00
23643;BME280;11998;55.788;37.572;2023-01-30T05:24:52;97740.88;;;-2.01;100.00
23643;BME280;11998;55.788;37.572;2023-01-30T05:25:53;97736.56;;;-1.93;100.00
23643;BME280;11998;55.788;37.572;2023-01-30T05:26:56;97743.50;;;-1.98;100.00
23643;BME280;11998;55.788;37.572;2023-01-30T05:27:57;97739.16;;;-1.93;100.00
23643;BME280;11998;55.788;37.572;2023-01-30T05:28:57;97740.88;;;-2.01;100.00
23643;BME280;11998;55.788;37.572;2023-01-30T05:29:58;97740.88;;;-2.01;100.00
23643;BME280;11998;55.788;37.572;2023-01-30T05:31:03;97730.50;;;-2.01;100.00
23643;BME280;11998;55.788;37.572;2023-01-30T05:32:04;97732.25;;;-1.94;100.00
23643;BME280;11998;55.788;37.572;2023-01-30T05:33:05;97728.75;;;-1.87;100.00
23643;BME280;11998;55.788;37.572;2023-01-30T05:34:06;97745.19;;;-1.87;100.00
23643;BME280;11998;55.788;37.572;2023-01-30T05:35:06;97734.84;;;-1.97;100.00
23643;BME280;11998;55.788;37.572;2023-01-30T05:36:13;97732.25;;;-1.97;100.00
23643;BME280;11998;55.788;37.572;2023-01-30T05:37:14;97739.16;;;-1.95;100.00
23643;BME280;11998;55.788;37.572;2023-01-30T05:38:15;97733.97;;;-2.02;100.00
23643;BME280;11998;55.788;37.572;2023-01-30T05:39:16;97718.41;;;-1.96;100.00
23643;BME280;11998;55.788;37.572;2023-01-30T05:40:17;97731.38;;;-1.86;100.00
23643;BME280;11998;55.788;37.572;2023-01-30T05:41:17;97727.94;;;-1.97;100.00
23643;BME280;11998;55.788;37.572;2023-01-30T05:42:18;97728.78;;;-1.95;100.00
23643;BME280;11998;55.788;37.572;2023-01-30T05:43:19;97719.28;;;-1.93;100.00
23643;BME280;11998;55.788;37.572;2023-01-30T05:44:19;97721.88;;;-1.96;100.00
23643;BME280;11998;55.788;37.572;2023-01-30T05:45:20;97727.91;;;-2.01;100.00
23643;BME280;11998;55.788;37.572;2023-01-30T05:46:20;97727.06;;;-1.91;100.00
23643;BME280;11998;55.788;37.572;2023-01-30T05:47:24;97721.84;;;-1.91;100.00
23643;BME280;11998;55.788;37.572;2023-01-30T05:48:25;97711.50;;;-2.00;100.00
23643;BME280;11998;55.788;37.572;2023-01-30T05:49:26;97723.59;;;-1.96;100.00
23643;BME280;11998;55.788;37.572;2023-01-30T05:50:26;97720.97;;;-1.89;100.00
23643;BME280;11998;55.788;37.572;2023-01-30T05:51:27;97726.19;;;-1.99;100.00
23643;BME280;11998;55.788;37.572;2023-01-30T05:52:28;97723.59;;;-1.96;100.00